sensor_id;sensor_type;location;lat;lon;timestamp;P1;durP1;ratioP1;P2;durP2;ratioP2
70455;SDS011;57916;51.996;5.180;2023-08-31T00:01:11;5.03;;;2.23;;
70455;SDS011;57916;51.996;5.180;2023-08-31T00:03:38;4.40;;;2.30;;
70455;SDS011;57916;51.996;5.180;2023-08-31T00:06:05;7.93;;;2.50;;
70455;SDS011;57916;51.996;5.180;2023-08-31T00:08:34;4.13;;;2.17;;
70455;SDS011;57916;51.996;5.180;2023-08-31T00:11:01;7.05;;;2.55;;
70455;SDS011;57916;51.996;5.180;2023-08-31T00:13:28;9.93;;;2.67;;
70455;SDS011;57916;51.996;5.180;2023-08-31T00:15:56;4.38;;;2.45;;
70455;SDS011;57916;51.996;5.180;2023-08-31T00:18:24;3.30;;;2.40;;
70455;SDS011;57916;51.996;5.180;2023-08-31T00:20:52;3.93;;;2.67;;
70455;SDS011;57916;51.996;5.180;2023-08-31T00:23:19;7.50;;;2.85;;
70455;SDS011;57916;51.996;5.180;2023-08-31T00:25:47;6.10;;;3.10;;
70455;SDS011;57916;51.996;5.180;2023-08-31T00:28:15;8.45;;;3.42;;
70455;SDS011;57916;51.996;5.180;2023-08-31T00:30:44;7.47;;;3.13;;
70455;SDS011;57916;51.996;5.180;2023-08-31T00:33:13;5.93;;;3.30;;
70455;SDS011;57916;51.996;5.180;2023-08-31T00:35:41;7.75;;;3.92;;
70455;SDS011;57916;51.996;5.180;2023-08-31T00:38:13;5.05;;;3.60;;
70455;SDS011;57916;51.996;5.180;2023-08-31T00:40:41;6.78;;;3.58;;
70455;SDS011;57916;51.996;5.180;2023-08-31T00:43:12;7.03;;;4.20;;
70455;SDS011;57916;51.996;5.180;2023-08-31T00:45:42;11.43;;;4.30;;
70455;SDS011;57916;51.996;5.180;2023-08-31T00:48:11;9.17;;;5.10;;
70455;SDS011;57916;51.996;5.180;2023-08-31T00:50:40;11.77;;;5.00;;
70455;SDS011;57916;51.996;5.180;2023-08-31T00:53:07;12.60;;;5.15;;
70455;SDS011;57916;51.996;5.180;2023-08-31T00:55:35;9.32;;;5.20;;
70455;SDS011;57916;51.996;5.180;2023-08-31T00:58:04;12.60;;;5.73;;
70455;SDS011;57916;51.996;5.180;2023-08-31T01:03:31;11.13;;;5.82;;
70455;SDS011;57916;51.996;5.180;2023-08-31T01:06:13;10.45;;;6.38;;
70455;SDS011;57916;51.996;5.180;2023-08-31T01:09:09;11.20;;;6.50;;
70455;SDS011;57916;51.996;5.180;2023-08-31T01:15:12;11.70;;;6.70;;
70455;SDS011;57916;51.996;5.180;2023-08-31T01:17:37;12.65;;;6.78;;
70455;SDS011;57916;51.996;5.180;2023-08-31T01:20:14;14.98;;;6.93;;
70455;SDS011;57916;51.996;5.180;2023-08-31T01:23:06;13.70;;;6.97;;
70455;SDS011;57916;51.996;5.180;2023-08-31T01:25:37;12.13;;;6.57;;
70455;SDS011;57916;51.996;5.180;2023-08-31T01:28:04;14.43;;;7.32;;
70455;SDS011;57916;51.996;5.180;2023-08-31T01:30:33;16.00;;;7.40;;
70455;SDS011;57916;51.996;5.180;2023-08-31T01:33:00;13.20;;;6.75;;
70455;SDS011;57916;51.996;5.180;2023-08-31T01:35:30;13.60;;;6.80;;
70455;SDS011;57916;51.996;5.180;2023-08-31T01:38:22;12.48;;;6.35;;
70455;SDS011;57916;51.996;5.180;2023-08-31T01:40:54;11.55;;;6.07;;
70455;SDS011;57916;51.996;5.180;2023-08-31T01:43:22;13.05;;;5.60;;
70455;SDS011;57916;51.996;5.180;2023-08-31T01:45:51;9.85;;;4.93;;
70455;SDS011;57916;51.996;5.180;2023-08-31T01:48:18;11.52;;;4.47;;
70455;SDS011;57916;51.996;5.180;2023-08-31T01:50:45;6.97;;;4.53;;
70455;SDS011;57916;51.996;5.180;2023-08-31T01:53:12;7.13;;;4.00;;
70455;SDS011;57916;51.996;5.180;2023-08-31T01:55:40;4.80;;;3.78;;
70455;SDS011;57916;51.996;5.180;2023-08-31T01:58:08;6.65;;;3.50;;
70455;SDS011;57916;51.996;5.180;2023-08-31T02:00:35;4.40;;;3.10;;
70455;SDS011;57916;51.996;5.180;2023-08-31T02:03:04;4.68;;;3.00;;
70455;SDS011;57916;51.996;5.180;2023-08-31T02:05:33;4.90;;;2.75;;
70455;SDS011;57916;51.996;5.180;2023-08-31T02:08:00;5.60;;;2.90;;
70455;SDS011;57916;51.996;5.180;2023-08-31T02:10:27;3.45;;;2.50;;
70455;SDS011;57916;51.996;5.180;2023-08-31T02:12:56;3.50;;;2.63;;
70455;SDS011;57916;51.996;5.180;2023-08-31T02:15:23;3.03;;;2.60;;
70455;SDS011;57916;51.996;5.180;2023-08-31T02:17:50;7.50;;;2.40;;
70455;SDS011;57916;51.996;5.180;2023-08-31T02:20:17;4.32;;;2.75;;
70455;SDS011;57916;51.996;5.180;2023-08-31T02:22:45;2.63;;;2.42;;
70455;SDS011;57916;51.996;5.180;2023-08-31T02:25:11;3.97;;;2.50;;
70455;SDS011;57916;51.996;5.180;2023-08-31T02:27:40;5.15;;;2.75;;
70455;SDS011;57916;51.996;5.180;2023-08-31T02:30:07;3.50;;;2.20;;
70455;SDS011;57916;51.996;5.180;2023-08-31T02:32:35;3.17;;;2.50;;
70455;SDS011;57916;51.996;5.180;2023-08-31T02:35:02;3.60;;;2.50;;
70455;SDS011;57916;51.996;5.180;2023-08-31T02:37:29;4.87;;;2.60;;
70455;SDS011;57916;51.996;5.180;2023-08-31T02:39:56;4.72;;;2.40;;
70455;SDS011;57916;51.996;5.180;2023-08-31T02:42:23;3.42;;;2.03;;
70455;SDS011;57916;51.996;5.180;2023-08-31T02:44:53;4.22;;;2.20;;
70455;SDS011;57916;51.996;5.180;2023-08-31T02:47:20;4.07;;;2.60;;
70455;SDS011;57916;51.996;5.180;2023-08-31T02:49:47;5.30;;;2.60;;
70455;SDS011;57916;51.996;5.180;2023-08-31T02:52:14;3.97;;;2.40;;
70455;SDS011;57916;51.996;5.180;2023-08-31T02:54:41;2.92;;;2.63;;
70455;SDS011;57916;51.996;5.180;2023-08-31T02:57:08;3.90;;;2.50;;
70455;SDS011;57916;51.996;5.180;2023-08-31T02:59:35;6.03;;;2.85;;
70455;SDS011;57916;51.996;5.180;2023-08-31T03:02:02;5.63;;;3.10;;
70455;SDS011;57916;51.996;5.180;2023-08-31T03:04:31;6.40;;;3.20;;
70455;SDS011;57916;51.996;5.180;2023-08-31T03:06:58;5.85;;;3.30;;
70455;SDS011;57916;51.996;5.180;2023-08-31T03:09:25;4.10;;;3.20;;
70455;SDS011;57916;51.996;5.180;2023-08-31T03:11:52;4.35;;;2.80;;
70455;SDS011;57916;51.996;5.180;2023-08-31T03:14:19;3.25;;;2.70;;
70455;SDS011;57916;51.996;5.180;2023-08-31T03:16:46;4.78;;;2.60;;
70455;SDS011;57916;51.996;5.180;2023-08-31T03:19:13;3.55;;;2.83;;
70455;SDS011;57916;51.996;5.180;2023-08-31T03:21:40;5.38;;;3.03;;
70455;SDS011;57916;51.996;5.180;2023-08-31T03:24:07;4.50;;;3.00;;
70455;SDS011;57916;51.996;5.180;2023-08-31T03:26:34;4.93;;;3.45;;
70455;SDS011;57916;51.996;5.180;2023-08-31T03:29:02;6.50;;;4.13;;
70455;SDS011;57916;51.996;5.180;2023-08-31T03:31:29;9.35;;;4.05;;
70455;SDS011;57916;51.996;5.180;2023-08-31T03:33:57;9.80;;;4.63;;
70455;SDS011;57916;51.996;5.180;2023-08-31T03:36:27;8.23;;;4.35;;
70455;SDS011;57916;51.996;5.180;2023-08-31T03:38:55;9.88;;;4.70;;
70455;SDS011;57916;51.996;5.180;2023-08-31T03:41:23;8.50;;;4.93;;
70455;SDS011;57916;51.996;5.180;2023-08-31T03:43:50;10.07;;;5.57;;
70455;SDS011;57916;51.996;5.180;2023-08-31T03:46:21;10.82;;;5.82;;
70455;SDS011;57916;51.996;5.180;2023-08-31T03:48:48;12.02;;;7.07;;
70455;SDS011;57916;51.996;5.180;2023-08-31T03:51:15;13.18;;;7.03;;
70455;SDS011;57916;51.996;5.180;2023-08-31T03:53:42;12.38;;;7.65;;
70455;SDS011;57916;51.996;5.180;2023-08-31T03:56:11;14.63;;;8.25;;
70455;SDS011;57916;51.996;5.180;2023-08-31T03:58:39;15.18;;;9.50;;
70455;SDS011;57916;51.996;5.180;2023-08-31T04:01:05;16.55;;;9.60;;
70455;SDS011;57916;51.996;5.180;2023-08-31T04:03:33;17.35;;;10.68;;
70455;SDS011;57916;51.996;5.180;2023-08-31T04:06:00;17.63;;;11.23;;
70455;SDS011;57916;51.996;5.180;2023-08-31T04:08:27;23.60;;;11.90;;
70455;SDS011;57916;51.996;5.180;2023-08-31T04:10:54;20.60;;;12.43;;
70455;SDS011;57916;51.996;5.180;2023-08-31T04:13:21;23.40;;;12.70;;
70455;SDS011;57916;51.996;5.180;2023-08-31T04:15:47;19.23;;;12.65;;
70455;SDS011;57916;51.996;5.180;2023-08-31T04:18:15;22.33;;;13.10;;
70455;SDS011;57916;51.996;5.180;2023-08-31T04:20:48;22.48;;;13.02;;
70455;SDS011;57916;51.996;5.180;2023-08-31T04:23:20;22.63;;;13.05;;
70455;SDS011;57916;51.996;5.180;2023-08-31T04:25:47;25.52;;;13.35;;
70455;SDS011;57916;51.996;5.180;2023-08-31T04:28:14;23.08;;;13.20;;
70455;SDS011;57916;51.996;5.180;2023-08-31T04:30:41;22.75;;;13.60;;
70455;SDS011;57916;51.996;5.180;2023-08-31T04:33:08;20.00;;;14.27;;
70455;SDS011;57916;51.996;5.180;2023-08-31T04:35:35;23.67;;;13.68;;
70455;SDS011;57916;51.996;5.180;2023-08-31T04:38:02;26.63;;;13.32;;
70455;SDS011;57916;51.996;5.180;2023-08-31T04:40:29;17.70;;;12.60;;
70455;SDS011;57916;51.996;5.180;2023-08-31T04:42:57;24.60;;;13.30;;
70455;SDS011;57916;51.996;5.180;2023-08-31T04:45:24;23.48;;;14.20;;
70455;SDS011;57916;51.996;5.180;2023-08-31T04:47:51;25.75;;;13.90;;
70455;SDS011;57916;51.996;5.180;2023-08-31T04:50:18;19.77;;;12.73;;
70455;SDS011;57916;51.996;5.180;2023-08-31T04:52:45;22.65;;;13.35;;
70455;SDS011;57916;51.996;5.180;2023-08-31T04:55:12;20.83;;;13.25;;
70455;SDS011;57916;51.996;5.180;2023-08-31T04:57:40;21.50;;;12.93;;
70455;SDS011;57916;51.996;5.180;2023-08-31T05:00:07;19.27;;;12.20;;
70455;SDS011;57916;51.996;5.180;2023-08-31T05:02:38;19.40;;;12.32;;
70455;SDS011;57916;51.996;5.180;2023-08-31T05:05:10;20.05;;;13.00;;
70455;SDS011;57916;51.996;5.180;2023-08-31T05:07:37;21.35;;;12.50;;
70455;SDS011;57916;51.996;5.180;2023-08-31T05:10:04;19.35;;;11.93;;
70455;SDS011;57916;51.996;5.180;2023-08-31T05:12:32;19.08;;;11.35;;
70455;SDS011;57916;51.996;5.180;2023-08-31T05:14:59;15.20;;;11.23;;
70455;SDS011;57916;51.996;5.180;2023-08-31T05:17:26;17.63;;;10.70;;
70455;SDS011;57916;51.996;5.180;2023-08-31T05:19:53;17.83;;;10.83;;
70455;SDS011;57916;51.996;5.180;2023-08-31T05:22:20;16.92;;;10.60;;
70455;SDS011;57916;51.996;5.180;2023-08-31T05:24:47;14.27;;;10.30;;
70455;SDS011;57916;51.996;5.180;2023-08-31T05:27:14;14.20;;;10.13;;
70455;SDS011;57916;51.996;5.180;2023-08-31T05:29:41;14.70;;;9.38;;
70455;SDS011;57916;51.996;5.180;2023-08-31T05:32:08;15.20;;;9.93;;
70455;SDS011;57916;51.996;5.180;2023-08-31T05:34:35;14.77;;;10.00;;
70455;SDS011;57916;51.996;5.180;2023-08-31T05:37:04;15.15;;;9.70;;
70455;SDS011;57916;51.996;5.180;2023-08-31T05:39:31;14.88;;;9.35;;
70455;SDS011;57916;51.996;5.180;2023-08-31T05:41:58;12.85;;;9.75;;
70455;SDS011;57916;51.996;5.180;2023-08-31T05:44:27;13.95;;;10.32;;
70455;SDS011;57916;51.996;5.180;2023-08-31T05:46:54;15.10;;;9.90;;
70455;SDS011;57916;51.996;5.180;2023-08-31T05:49:21;19.20;;;10.43;;
70455;SDS011;57916;51.996;5.180;2023-08-31T05:51:47;18.30;;;10.50;;
70455;SDS011;57916;51.996;5.180;2023-08-31T05:54:15;19.80;;;9.98;;
70455;SDS011;57916;51.996;5.180;2023-08-31T05:56:42;17.75;;;10.25;;
70455;SDS011;57916;51.996;5.180;2023-08-31T05:59:09;20.00;;;10.25;;
70455;SDS011;57916;51.996;5.180;2023-08-31T06:01:36;18.38;;;10.05;;
70455;SDS011;57916;51.996;5.180;2023-08-31T06:04:03;14.23;;;10.07;;
70455;SDS011;57916;51.996;5.180;2023-08-31T06:06:32;16.42;;;10.15;;
70455;SDS011;57916;51.996;5.180;2023-08-31T06:08:59;17.17;;;10.50;;
70455;SDS011;57916;51.996;5.180;2023-08-31T06:11:26;16.98;;;9.93;;
70455;SDS011;57916;51.996;5.180;2023-08-31T06:13:53;16.25;;;9.98;;
70455;SDS011;57916;51.996;5.180;2023-08-31T06:16:20;15.32;;;9.45;;
70455;SDS011;57916;51.996;5.180;2023-08-31T06:18:47;17.08;;;9.65;;
70455;SDS011;57916;51.996;5.180;2023-08-31T06:21:14;22.63;;;9.38;;
70455;SDS011;57916;51.996;5.180;2023-08-31T06:23:40;14.75;;;9.00;;
70455;SDS011;57916;51.996;5.180;2023-08-31T06:26:07;17.30;;;9.10;;
70455;SDS011;57916;51.996;5.180;2023-08-31T06:28:34;12.98;;;8.00;;
70455;SDS011;57916;51.996;5.180;2023-08-31T06:31:01;12.95;;;8.27;;
70455;SDS011;57916;51.996;5.180;2023-08-31T06:33:29;12.00;;;7.45;;
70455;SDS011;57916;51.996;5.180;2023-08-31T06:35:55;11.27;;;7.30;;
70455;SDS011;57916;51.996;5.180;2023-08-31T06:38:22;12.90;;;6.90;;
70455;SDS011;57916;51.996;5.180;2023-08-31T06:40:49;10.38;;;6.88;;
70455;SDS011;57916;51.996;5.180;2023-08-31T06:43:16;9.52;;;7.25;;
70455;SDS011;57916;51.996;5.180;2023-08-31T06:45:43;11.63;;;6.93;;
70455;SDS011;57916;51.996;5.180;2023-08-31T06:48:10;14.32;;;6.88;;
70455;SDS011;57916;51.996;5.180;2023-08-31T06:50:37;13.02;;;7.50;;
70455;SDS011;57916;51.996;5.180;2023-08-31T06:53:04;10.20;;;7.07;;
70455;SDS011;57916;51.996;5.180;2023-08-31T06:55:31;10.60;;;7.05;;
70455;SDS011;57916;51.996;5.180;2023-08-31T06:57:59;12.57;;;6.20;;
70455;SDS011;57916;51.996;5.180;2023-08-31T07:00:27;8.38;;;6.18;;
70455;SDS011;57916;51.996;5.180;2023-08-31T07:02:54;10.55;;;6.20;;
70455;SDS011;57916;51.996;5.180;2023-08-31T07:05:25;11.95;;;6.30;;
70455;SDS011;57916;51.996;5.180;2023-08-31T07:07:53;17.00;;;7.17;;
70455;SDS011;57916;51.996;5.180;2023-08-31T07:10:21;10.68;;;7.00;;
70455;SDS011;57916;51.996;5.180;2023-08-31T07:12:48;9.82;;;6.90;;
70455;SDS011;57916;51.996;5.180;2023-08-31T07:15:15;13.20;;;6.90;;
70455;SDS011;57916;51.996;5.180;2023-08-31T07:17:42;11.45;;;7.00;;
70455;SDS011;57916;51.996;5.180;2023-08-31T07:20:10;9.40;;;6.80;;
70455;SDS011;57916;51.996;5.180;2023-08-31T07:22:38;15.18;;;6.78;;
70455;SDS011;57916;51.996;5.180;2023-08-31T07:25:06;12.13;;;7.13;;
70455;SDS011;57916;51.996;5.180;2023-08-31T07:27:33;10.38;;;6.85;;
70455;SDS011;57916;51.996;5.180;2023-08-31T07:30:00;13.77;;;7.10;;
70455;SDS011;57916;51.996;5.180;2023-08-31T07:32:29;10.02;;;7.18;;
70455;SDS011;57916;51.996;5.180;2023-08-31T07:34:56;12.02;;;7.18;;
70455;SDS011;57916;51.996;5.180;2023-08-31T07:37:23;12.18;;;7.30;;
70455;SDS011;57916;51.996;5.180;2023-08-31T07:39:50;12.97;;;7.00;;
70455;SDS011;57916;51.996;5.180;2023-08-31T07:42:17;12.02;;;6.88;;
70455;SDS011;57916;51.996;5.180;2023-08-31T07:44:44;10.30;;;7.03;;
70455;SDS011;57916;51.996;5.180;2023-08-31T07:47:11;12.02;;;6.65;;
70455;SDS011;57916;51.996;5.180;2023-08-31T07:49:38;12.70;;;7.00;;
70455;SDS011;57916;51.996;5.180;2023-08-31T07:52:05;15.43;;;7.40;;
70455;SDS011;57916;51.996;5.180;2023-08-31T07:54:32;11.07;;;6.97;;
70455;SDS011;57916;51.996;5.180;2023-08-31T07:56:59;11.02;;;7.30;;
70455;SDS011;57916;51.996;5.180;2023-08-31T07:59:26;9.25;;;6.05;;
70455;SDS011;57916;51.996;5.180;2023-08-31T08:01:54;9.65;;;5.30;;
70455;SDS011;57916;51.996;5.180;2023-08-31T08:04:21;7.50;;;4.75;;
70455;SDS011;57916;51.996;5.180;2023-08-31T08:06:49;7.93;;;4.72;;
70455;SDS011;57916;51.996;5.180;2023-08-31T08:09:17;7.78;;;4.32;;
70455;SDS011;57916;51.996;5.180;2023-08-31T08:11:44;6.68;;;4.93;;
70455;SDS011;57916;51.996;5.180;2023-08-31T08:14:11;5.80;;;4.45;;
70455;SDS011;57916;51.996;5.180;2023-08-31T08:16:38;9.10;;;4.45;;
70455;SDS011;57916;51.996;5.180;2023-08-31T08:19:05;6.55;;;4.03;;
70455;SDS011;57916;51.996;5.180;2023-08-31T08:21:33;6.45;;;3.97;;
70455;SDS011;57916;51.996;5.180;2023-08-31T08:24:00;10.05;;;4.18;;
70455;SDS011;57916;51.996;5.180;2023-08-31T08:26:27;20.63;;;4.00;;
70455;SDS011;57916;51.996;5.180;2023-08-31T08:28:54;82.45;;;8.40;;
70455;SDS011;57916;51.996;5.180;2023-08-31T08:31:21;11.82;;;3.63;;
70455;SDS011;57916;51.996;5.180;2023-08-31T08:33:50;11.68;;;2.42;;
70455;SDS011;57916;51.996;5.180;2023-08-31T08:36:17;6.20;;;2.10;;
70455;SDS011;57916;51.996;5.180;2023-08-31T08:38:44;7.28;;;1.60;;
70455;SDS011;57916;51.996;5.180;2023-08-31T08:41:11;4.45;;;1.73;;
70455;SDS011;57916;51.996;5.180;2023-08-31T08:43:38;13.55;;;2.83;;
70455;SDS011;57916;51.996;5.180;2023-08-31T08:46:09;49.65;;;5.70;;
70455;SDS011;57916;51.996;5.180;2023-08-31T08:48:37;37.30;;;5.17;;
70455;SDS011;57916;51.996;5.180;2023-08-31T08:51:05;9.90;;;1.43;;
70455;SDS011;57916;51.996;5.180;2023-08-31T08:53:34;2.72;;;1.25;;
70455;SDS011;57916;51.996;5.180;2023-08-31T08:56:01;7.97;;;1.55;;
70455;SDS011;57916;51.996;5.180;2023-08-31T08:58:28;4.18;;;1.20;;
70455;SDS011;57916;51.996;5.180;2023-08-31T09:00:55;5.68;;;1.20;;
70455;SDS011;57916;51.996;5.180;2023-08-31T09:03:25;4.75;;;1.35;;
70455;SDS011;57916;51.996;5.180;2023-08-31T09:05:52;1.85;;;1.40;;
70455;SDS011;57916;51.996;5.180;2023-08-31T09:08:25;3.03;;;1.35;;
70455;SDS011;57916;51.996;5.180;2023-08-31T09:10:54;6.10;;;1.33;;
70455;SDS011;57916;51.996;5.180;2023-08-31T09:13:27;5.45;;;1.20;;
70455;SDS011;57916;51.996;5.180;2023-08-31T09:15:56;5.40;;;1.00;;
70455;SDS011;57916;51.996;5.180;2023-08-31T09:18:30;2.65;;;1.10;;
70455;SDS011;57916;51.996;5.180;2023-08-31T09:20:59;2.33;;;0.80;;
70455;SDS011;57916;51.996;5.180;2023-08-31T09:23:27;5.00;;;0.75;;
70455;SDS011;57916;51.996;5.180;2023-08-31T09:25:54;3.72;;;0.70;;
70455;SDS011;57916;51.996;5.180;2023-08-31T09:28:23;4.17;;;1.00;;
70455;SDS011;57916;51.996;5.180;2023-08-31T09:31:04;2.40;;;0.50;;
70455;SDS011;57916;51.996;5.180;2023-08-31T09:33:36;0.70;;;0.47;;
70455;SDS011;57916;51.996;5.180;2023-08-31T09:36:05;1.90;;;0.70;;
70455;SDS011;57916;51.996;5.180;2023-08-31T09:38:40;5.25;;;0.82;;
70455;SDS011;57916;51.996;5.180;2023-08-31T09:41:09;1.85;;;0.55;;
70455;SDS011;57916;51.996;5.180;2023-08-31T09:43:37;2.60;;;0.73;;
70455;SDS011;57916;51.996;5.180;2023-08-31T09:46:04;1.73;;;0.65;;
70455;SDS011;57916;51.996;5.180;2023-08-31T09:48:32;2.78;;;0.75;;
70455;SDS011;57916;51.996;5.180;2023-08-31T09:50:59;5.90;;;0.70;;
70455;SDS011;57916;51.996;5.180;2023-08-31T09:53:30;5.87;;;0.70;;
70455;SDS011;57916;51.996;5.180;2023-08-31T09:55:57;4.93;;;0.65;;
70455;SDS011;57916;51.996;5.180;2023-08-31T09:58:25;1.67;;;0.60;;
70455;SDS011;57916;51.996;5.180;2023-08-31T10:00:55;1.90;;;0.60;;
70455;SDS011;57916;51.996;5.180;2023-08-31T10:03:22;3.08;;;0.50;;
70455;SDS011;57916;51.996;5.180;2023-08-31T10:05:50;1.20;;;0.60;;
70455;SDS011;57916;51.996;5.180;2023-08-31T10:08:18;2.50;;;0.70;;
70455;SDS011;57916;51.996;5.180;2023-08-31T10:10:45;2.80;;;0.68;;
70455;SDS011;57916;51.996;5.180;2023-08-31T10:13:13;9.13;;;1.00;;
70455;SDS011;57916;51.996;5.180;2023-08-31T10:15:43;4.25;;;1.23;;
70455;SDS011;57916;51.996;5.180;2023-08-31T10:18:10;1.88;;;0.90;;
70455;SDS011;57916;51.996;5.180;2023-08-31T10:20:37;3.43;;;1.00;;
70455;SDS011;57916;51.996;5.180;2023-08-31T10:23:09;2.53;;;0.70;;
70455;SDS011;57916;51.996;5.180;2023-08-31T10:25:59;4.38;;;0.80;;
70455;SDS011;57916;51.996;5.180;2023-08-31T10:28:24;2.30;;;0.90;;
70455;SDS011;57916;51.996;5.180;2023-08-31T10:33:40;2.30;;;0.80;;
70455;SDS011;57916;51.996;5.180;2023-08-31T10:36:18;1.45;;;0.68;;
70455;SDS011;57916;51.996;5.180;2023-08-31T10:41:22;1.20;;;0.60;;
70455;SDS011;57916;51.996;5.180;2023-08-31T10:43:54;1.97;;;0.70;;
70455;SDS011;57916;51.996;5.180;2023-08-31T10:48:58;0.80;;;0.50;;
70455;SDS011;57916;51.996;5.180;2023-08-31T10:51:41;1.85;;;0.60;;
70455;SDS011;57916;51.996;5.180;2023-08-31T10:54:19;2.65;;;0.60;;
70455;SDS011;57916;51.996;5.180;2023-08-31T10:59:46;1.63;;;0.60;;
70455;SDS011;57916;51.996;5.180;2023-08-31T11:04:55;1.27;;;0.70;;
70455;SDS011;57916;51.996;5.180;2023-08-31T11:07:29;2.65;;;0.50;;
70455;SDS011;57916;51.996;5.180;2023-08-31T11:10:07;2.75;;;0.80;;
70455;SDS011;57916;51.996;5.180;2023-08-31T11:12:38;4.80;;;0.80;;
70455;SDS011;57916;51.996;5.180;2023-08-31T11:15:06;1.70;;;0.68;;
70455;SDS011;57916;51.996;5.180;2023-08-31T11:17:33;2.47;;;0.52;;
70455;SDS011;57916;51.996;5.180;2023-08-31T11:20:01;2.17;;;0.60;;
70455;SDS011;57916;51.996;5.180;2023-08-31T11:22:31;1.35;;;0.55;;
70455;SDS011;57916;51.996;5.180;2023-08-31T11:25:02;3.03;;;0.80;;
70455;SDS011;57916;51.996;5.180;2023-08-31T11:27:29;0.90;;;0.60;;
70455;SDS011;57916;51.996;5.180;2023-08-31T11:29:56;4.90;;;0.88;;
70455;SDS011;57916;51.996;5.180;2023-08-31T11:32:26;1.80;;;0.68;;
70455;SDS011;57916;51.996;5.180;2023-08-31T11:34:53;2.40;;;0.70;;
70455;SDS011;57916;51.996;5.180;2023-08-31T11:37:20;1.50;;;0.70;;
70455;SDS011;57916;51.996;5.180;2023-08-31T11:39:48;2.75;;;0.52;;
70455;SDS011;57916;51.996;5.180;2023-08-31T11:42:17;3.15;;;0.70;;
70455;SDS011;57916;51.996;5.180;2023-08-31T11:44:50;4.32;;;0.60;;
70455;SDS011;57916;51.996;5.180;2023-08-31T11:47:19;1.42;;;0.90;;
70455;SDS011;57916;51.996;5.180;2023-08-31T11:49:47;2.58;;;0.60;;
70455;SDS011;57916;51.996;5.180;2023-08-31T11:52:15;1.35;;;0.70;;
70455;SDS011;57916;51.996;5.180;2023-08-31T11:54:42;4.50;;;0.83;;
70455;SDS011;57916;51.996;5.180;2023-08-31T11:57:09;2.60;;;0.80;;
70455;SDS011;57916;51.996;5.180;2023-08-31T11:59:37;2.53;;;0.70;;
70455;SDS011;57916;51.996;5.180;2023-08-31T12:02:08;3.08;;;0.80;;
70455;SDS011;57916;51.996;5.180;2023-08-31T12:04:45;2.03;;;0.57;;
70455;SDS011;57916;51.996;5.180;2023-08-31T12:07:16;2.42;;;0.60;;
70455;SDS011;57916;51.996;5.180;2023-08-31T12:09:45;4.10;;;0.60;;
70455;SDS011;57916;51.996;5.180;2023-08-31T12:12:20;3.03;;;0.65;;
70455;SDS011;57916;51.996;5.180;2023-08-31T12:14:52;2.08;;;0.57;;
70455;SDS011;57916;51.996;5.180;2023-08-31T12:17:19;3.20;;;0.60;;
70455;SDS011;57916;51.996;5.180;2023-08-31T12:19:46;2.47;;;0.52;;
70455;SDS011;57916;51.996;5.180;2023-08-31T12:22:13;4.05;;;0.70;;
70455;SDS011;57916;51.996;5.180;2023-08-31T12:24:40;2.53;;;0.70;;
70455;SDS011;57916;51.996;5.180;2023-08-31T12:27:08;3.20;;;0.80;;
70455;SDS011;57916;51.996;5.180;2023-08-31T12:29:35;2.88;;;0.80;;
70455;SDS011;57916;51.996;5.180;2023-08-31T12:32:03;2.97;;;0.70;;
70455;SDS011;57916;51.996;5.180;2023-08-31T12:34:30;1.30;;;0.70;;
70455;SDS011;57916;51.996;5.180;2023-08-31T12:37:00;1.65;;;0.60;;
70455;SDS011;57916;51.996;5.180;2023-08-31T12:39:29;4.28;;;0.90;;
70455;SDS011;57916;51.996;5.180;2023-08-31T12:41:56;2.50;;;0.80;;
70455;SDS011;57916;51.996;5.180;2023-08-31T12:44:38;1.63;;;0.60;;
70455;SDS011;57916;51.996;5.180;2023-08-31T12:47:05;2.30;;;0.50;;
70455;SDS011;57916;51.996;5.180;2023-08-31T12:49:32;1.65;;;0.70;;
70455;SDS011;57916;51.996;5.180;2023-08-31T12:51:59;2.65;;;0.70;;
70455;SDS011;57916;51.996;5.180;2023-08-31T12:54:25;1.77;;;0.68;;
70455;SDS011;57916;51.996;5.180;2023-08-31T12:56:53;2.10;;;0.70;;
70455;SDS011;57916;51.996;5.180;2023-08-31T12:59:20;2.45;;;0.70;;
70455;SDS011;57916;51.996;5.180;2023-08-31T13:01:46;5.60;;;0.80;;
70455;SDS011;57916;51.996;5.180;2023-08-31T13:04:13;2.03;;;0.60;;
70455;SDS011;57916;51.996;5.180;2023-08-31T13:06:40;0.77;;;0.57;;
70455;SDS011;57916;51.996;5.180;2023-08-31T13:09:07;6.15;;;0.85;;
70455;SDS011;57916;51.996;5.180;2023-08-31T13:11:35;2.97;;;0.75;;
70455;SDS011;57916;51.996;5.180;2023-08-31T13:14:02;3.08;;;0.65;;
70455;SDS011;57916;51.996;5.180;2023-08-31T13:16:29;2.85;;;0.70;;
70455;SDS011;57916;51.996;5.180;2023-08-31T13:18:56;3.95;;;0.95;;
70455;SDS011;57916;51.996;5.180;2023-08-31T13:21:23;3.22;;;0.70;;
70455;SDS011;57916;51.996;5.180;2023-08-31T13:23:50;3.50;;;0.90;;
70455;SDS011;57916;51.996;5.180;2023-08-31T13:26:17;5.10;;;0.70;;
70455;SDS011;57916;51.996;5.180;2023-08-31T13:28:44;2.42;;;0.80;;
70455;SDS011;57916;51.996;5.180;2023-08-31T13:31:11;1.77;;;0.70;;
70455;SDS011;57916;51.996;5.180;2023-08-31T13:33:38;2.63;;;0.90;;
70455;SDS011;57916;51.996;5.180;2023-08-31T13:36:05;3.05;;;0.80;;
70455;SDS011;57916;51.996;5.180;2023-08-31T13:38:32;5.53;;;0.95;;
70455;SDS011;57916;51.996;5.180;2023-08-31T13:40:59;3.72;;;0.80;;
70455;SDS011;57916;51.996;5.180;2023-08-31T13:43:26;1.40;;;0.65;;
70455;SDS011;57916;51.996;5.180;2023-08-31T13:45:53;1.40;;;0.70;;
70455;SDS011;57916;51.996;5.180;2023-08-31T13:48:20;2.65;;;0.80;;
70455;SDS011;57916;51.996;5.180;2023-08-31T13:50:49;2.57;;;0.67;;
70455;SDS011;57916;51.996;5.180;2023-08-31T13:53:16;4.13;;;0.80;;
70455;SDS011;57916;51.996;5.180;2023-08-31T13:55:42;1.40;;;0.80;;
70455;SDS011;57916;51.996;5.180;2023-08-31T13:58:09;4.33;;;0.90;;
70455;SDS011;57916;51.996;5.180;2023-08-31T14:00:37;3.77;;;0.83;;
70455;SDS011;57916;51.996;5.180;2023-08-31T14:03:04;1.80;;;0.83;;
70455;SDS011;57916;51.996;5.180;2023-08-31T14:05:32;3.33;;;1.10;;
70455;SDS011;57916;51.996;5.180;2023-08-31T14:08:00;2.05;;;0.68;;
70455;SDS011;57916;51.996;5.180;2023-08-31T14:10:30;2.40;;;1.00;;
70455;SDS011;57916;51.996;5.180;2023-08-31T14:12:59;3.30;;;0.70;;
70455;SDS011;57916;51.996;5.180;2023-08-31T14:15:26;3.08;;;0.80;;
70455;SDS011;57916;51.996;5.180;2023-08-31T14:17:53;6.70;;;1.00;;
70455;SDS011;57916;51.996;5.180;2023-08-31T14:20:20;3.80;;;0.80;;
70455;SDS011;57916;51.996;5.180;2023-08-31T14:22:48;4.28;;;0.90;;
70455;SDS011;57916;51.996;5.180;2023-08-31T14:25:16;4.03;;;0.90;;
70455;SDS011;57916;51.996;5.180;2023-08-31T14:27:43;1.15;;;0.70;;
70455;SDS011;57916;51.996;5.180;2023-08-31T14:30:12;2.20;;;0.93;;
70455;SDS011;57916;51.996;5.180;2023-08-31T14:32:39;1.65;;;0.70;;
70455;SDS011;57916;51.996;5.180;2023-08-31T14:35:07;3.33;;;0.80;;
70455;SDS011;57916;51.996;5.180;2023-08-31T14:37:34;3.22;;;0.90;;
70455;SDS011;57916;51.996;5.180;2023-08-31T14:40:01;3.33;;;0.90;;
70455;SDS011;57916;51.996;5.180;2023-08-31T14:42:28;2.97;;;1.08;;
70455;SDS011;57916;51.996;5.180;2023-08-31T14:44:55;2.05;;;0.90;;
70455;SDS011;57916;51.996;5.180;2023-08-31T14:47:22;3.03;;;1.00;;
70455;SDS011;57916;51.996;5.180;2023-08-31T14:49:49;3.30;;;0.80;;
70455;SDS011;57916;51.996;5.180;2023-08-31T14:52:16;1.60;;;0.85;;
70455;SDS011;57916;51.996;5.180;2023-08-31T14:54:43;2.65;;;0.88;;
70455;SDS011;57916;51.996;5.180;2023-08-31T14:57:10;1.80;;;1.00;;
70455;SDS011;57916;51.996;5.180;2023-08-31T14:59:36;2.08;;;0.80;;
70455;SDS011;57916;51.996;5.180;2023-08-31T15:02:04;1.50;;;0.90;;
70455;SDS011;57916;51.996;5.180;2023-08-31T15:04:32;1.48;;;0.95;;
70455;SDS011;57916;51.996;5.180;2023-08-31T15:06:59;2.80;;;0.80;;